Terminal Aerodrome Forecast
Issued by NWS

Home | Current Version | Previous Version | Text Only | Print | Product List | Glossary On
Versions: 1 2 3 4 5 6 7 8 9 10 11 12 13 14 15 16 17 18 19
000
FTUS46 KPDT 240500
TAFALW
TAF
KALW 240520Z 2406/2506 16006KT P6SM VCSH BKN060 OVC080
     FM241000 15006KT P6SM -RA BKN040 OVC060
     FM241500 20010G20KT P6SM -SHRA BKN040 OVC080
     FM242100 20015G25KT P6SM -SHRA BKN050 OVC100=

USA.gov is the U.S. government's official web portal to all federal, state and local government web resources and services.